Архив погоды в Бийске

Метеограмма Бийск
Вторник, 17 Июля
Время местн. Темп Ветер Видим Явления Облачность нижн/средн/верх Атм. давл. Влжн Точка росы ВНГО R Сост. почвы Tg s
Напр Скр Прв ур.ст ур.м изм
15:00 +24.6° С 5 - 20 км - облачно с прояснениями 734 753 0 41% +10.5° 1 км - - - -
12:00 +24.3° С,С-В 3 - 20 км - переменная облачность 734 753 +0.2 36% +8.4° 1.5 км - - - -
09:00 +20.9° С-В 3 - 20 км - переменная облачность 734 753 +0.5 51% +10.5° - - - - -
06:00 +16.7° С 2 - 20 км - облачно с прояснениями 734 753 +0.5 65% +10.2° 1 км 0 Сухая (без трещин) - -
03:00 +17.6° С-В 2 - 20 км - преимущественно облачно 733 753 -0.1 63% +10.5° 1 км - - - -
00:00 +19° С 2 - 20 км - переменная облачность 733 753 -0.3 51% +8.6° более 2.5 км - - - -
Понедельник, 16 Июля
Время местн. Темп Ветер Видим Явления Облачность нижн/средн/верх Атм. давл. Влжн Точка росы ВНГО R Сост. почвы Tg s
Напр Скр Прв ур.ст ур.м изм
21:00 +22.1° С 3 - 20 км - преимущественно облачно 733 753 +0.5 49% +10.9° 1 км - - - -
18:00 +26.4° С,С-В 5 - 20 км - облачно с прояснениями 733 752 +0.4 39% +11.5° 1 км 0 - - -
15:00 +27.4° С-В 4 - 20 км - облачно с прояснениями 732 751 -0.5 46% +14.7° 1 км - - - -
12:00 +25.9° С-В 4 - 20 км - облачно с прояснениями 733 752 +0.1 57% +16.6° 1 км - - - -
09:00 +22.9° С-В 3 - 20 км - переменная облачность 733 752 +0.2 63% +15.6° более 2.5 км - - - -
06:00 +18.6° С-В 2 - 20 км - облачно с прояснениями 733 752 +0.1 82% +15.5° - 9 Влажная (без луж) - -
03:00 +18.1° С,С-В 2 - 20 км - облачно с прояснениями 733 752 -0.7 82% +14.9° 1 км - - - -
00:00 +19.4° С,С-В 2 - 20 км небо без изменений {гроза, ливневые осадки} облачно 733 753 +0.1 77% +15.3° 1 км - - - -
Воскресенье, 15 Июля
Время местн. Темп Ветер Видим Явления Облачность нижн/средн/верх Атм. давл. Влжн Точка росы ВНГО R Сост. почвы Tg s
Напр Скр Прв ур.ст ур.м изм
21:00 +19.5° С-В 3 - 20 км гроза {ливневые осадки} облачно 733 753 +0.8 75% +15° 1 км - - - -
18:00 +28.4° С,С-В 2 - 20 км - облачно 732 751 +0.1 44% +15.1° 1 км 0 - - -
15:00 +28.8° С-В 2 - 20 км - преимущественно облачно 732 751 -0.4 44% +15.3° 1 км - - - -
12:00 +28.6° С-В 2 - 20 км - облачно с прояснениями 733 751 -0.2 46% +15.7° более 2.5 км - - - -
09:00 +24.5° С,С-В 1 - 20 км - ясно 733 752 +0.3 64% +17.3° более 2.5 км - - - -
06:00 +19.4° В,С-В 2 - 20 км - ясно 733 752 +0.3 83% +16.5° более 2.5 км 0 Сухая (без трещин) - -
03:00 +18.9° С-В 2 - 20 км - переменная облачность 732 752 -0.2 86% +16.5° 1 км - - - -
00:00 - +18.5° С,С-В 1 - - - - 732 752 +0.1 88% +16.5° - - - - -
Суббота, 14 Июля
Время местн. Темп Ветер Видим Явления Облачность нижн/средн/верх Атм. давл. Влжн Точка росы ВНГО R Сост. почвы Tg s
Напр Скр Прв ур.ст ур.м изм
21:00 +22.8° С 1 - 20 км - облачно с прояснениями 733 752 +0.7 70% +17.1° 1 км - - - -
18:00 +25.9° С,С-В 1 - 20 км гроза преимущественно облачно 732 751 +0.1 60% +17.6° 1 км 0 - - -
15:00 +28.4° В 2 - 20 км облака развиваются {гроза} облачно 732 751 -0.5 46% +15.7° 1 км - - - -
12:00 +28.2° Ю-В 1 - 20 км - переменная облачность 732 751 -0.2 48% +16.1° 1 км - - - -